sensor_id;sensor_type;location;lat;lon;timestamp;pressure;altitude;pressure_sealevel;temperature;humidity
71643;BME280;59438;45.014;39.006;2022-11-27T00:00:27;101687.94;;;7.49;77.55
71643;BME280;59438;45.014;39.006;2022-11-27T00:02:54;101688.84;;;7.47;78.03
71643;BME280;59438;45.014;39.006;2022-11-27T00:05:20;101687.97;;;7.47;78.14
71643;BME280;59438;45.014;39.006;2022-11-27T00:07:47;101696.69;;;7.46;77.73
71643;BME280;59438;45.014;39.006;2022-11-27T00:10:13;101693.22;;;7.45;78.02
71643;BME280;59438;45.014;39.006;2022-11-27T00:12:39;101696.69;;;7.43;77.48
71643;BME280;59438;45.014;39.006;2022-11-27T00:15:06;101693.28;;;7.39;77.50
71643;BME280;59438;45.014;39.006;2022-11-27T00:17:34;101696.78;;;7.35;78.07
71643;BME280;59438;45.014;39.006;2022-11-27T00:20:01;101687.25;;;7.31;77.92
71643;BME280;59438;45.014;39.006;2022-11-27T00:22:27;101702.06;;;7.29;77.88
71643;BME280;59438;45.014;39.006;2022-11-27T00:24:53;101694.22;;;7.26;78.38
71643;BME280;59438;45.014;39.006;2022-11-27T00:27:20;101701.22;;;7.24;78.08
71643;BME280;59438;45.014;39.006;2022-11-27T00:29:46;101696.88;;;7.21;78.13
71643;BME280;59438;45.014;39.006;2022-11-27T00:32:13;101690.78;;;7.21;78.20
71643;BME280;59438;45.014;39.006;2022-11-27T00:34:40;101681.28;;;7.09;78.65
71643;BME280;59438;45.014;39.006;2022-11-27T00:37:07;101702.97;;;7.22;78.71
71643;BME280;59438;45.014;39.006;2022-11-27T00:39:33;101703.88;;;7.21;78.20
71643;BME280;59438;45.014;39.006;2022-11-27T00:42:00;101700.34;;;7.22;78.63
71643;BME280;59438;45.014;39.006;2022-11-27T00:44:26;101704.69;;;7.28;78.40
71643;BME280;59438;45.014;39.006;2022-11-27T00:46:53;101670.78;;;7.17;79.07
71643;BME280;59438;45.014;39.006;2022-11-27T00:49:19;101703.78;;;7.30;78.33
71643;BME280;59438;45.014;39.006;2022-11-27T00:51:47;101665.63;;;7.09;78.44
71643;BME280;59438;45.014;39.006;2022-11-27T00:54:13;101701.16;;;7.29;78.35
71643;BME280;59438;45.014;39.006;2022-11-27T00:56:39;101700.31;;;7.30;78.12
71643;BME280;59438;45.014;39.006;2022-11-27T00:59:06;101706.38;;;7.30;78.71
71643;BME280;59438;45.014;39.006;2022-11-27T01:01:35;101702.91;;;7.30;78.45
71643;BME280;59438;45.014;39.006;2022-11-27T01:04:04;101706.38;;;7.30;78.30
71643;BME280;59438;45.014;39.006;2022-11-27T01:06:31;101707.25;;;7.31;78.64
71643;BME280;59438;45.014;39.006;2022-11-27T01:08:59;101703.78;;;7.30;78.96
71643;BME280;59438;45.014;39.006;2022-11-27T01:11:27;101709.88;;;7.31;78.45
71643;BME280;59438;45.014;39.006;2022-11-27T01:13:55;101709.91;;;7.29;78.88
71643;BME280;59438;45.014;39.006;2022-11-27T01:16:24;101713.38;;;7.28;78.64
71643;BME280;59438;45.014;39.006;2022-11-27T01:18:53;101713.38;;;7.30;78.52
71643;BME280;59438;45.014;39.006;2022-11-27T01:21:20;101705.56;;;7.25;77.79
71643;BME280;59438;45.014;39.006;2022-11-27T01:23:47;101701.25;;;7.18;78.40
71643;BME280;59438;45.014;39.006;2022-11-27T01:26:17;101704.72;;;7.21;78.84
71643;BME280;59438;45.014;39.006;2022-11-27T01:28:44;101713.41;;;7.20;78.93
71643;BME280;59438;45.014;39.006;2022-11-27T01:31:14;101704.72;;;7.20;78.48
71643;BME280;59438;45.014;39.006;2022-11-27T01:33:41;101718.66;;;7.22;78.93
71643;BME280;59438;45.014;39.006;2022-11-27T01:36:09;101689.94;;;7.16;79.08
71643;BME280;59438;45.014;39.006;2022-11-27T01:38:36;101712.53;;;7.26;78.52
71643;BME280;59438;45.014;39.006;2022-11-27T01:41:05;101717.75;;;7.26;78.43
71643;BME280;59438;45.014;39.006;2022-11-27T01:43:39;101728.19;;;7.28;79.12
71643;BME280;59438;45.014;39.006;2022-11-27T01:46:16;101715.13;;;7.26;79.00
71643;BME280;59438;45.014;39.006;2022-11-27T01:48:46;101723.84;;;7.26;78.53
71643;BME280;59438;45.014;39.006;2022-11-27T01:51:13;101720.41;;;7.23;78.61
71643;BME280;59438;45.014;39.006;2022-11-27T01:53:40;101716.03;;;7.22;78.23
71643;BME280;59438;45.014;39.006;2022-11-27T01:56:07;101730.81;;;7.24;78.48
71643;BME280;59438;45.014;39.006;2022-11-27T01:58:34;101727.34;;;7.25;78.55
71643;BME280;59438;45.014;39.006;2022-11-27T02:01:02;101734.28;;;7.28;78.55
71643;BME280;59438;45.014;39.006;2022-11-27T02:03:29;101726.44;;;7.31;78.69
71643;BME280;59438;45.014;39.006;2022-11-27T02:05:56;101738.59;;;7.32;78.83
71643;BME280;59438;45.014;39.006;2022-11-27T02:08:22;101735.13;;;7.30;78.40
71643;BME280;59438;45.014;39.006;2022-11-27T02:10:52;101728.19;;;7.28;78.60
71643;BME280;59438;45.014;39.006;2022-11-27T02:13:24;101726.44;;;7.28;78.99
71643;BME280;59438;45.014;39.006;2022-11-27T02:16:01;101739.50;;;7.28;78.33
71643;BME280;59438;45.014;39.006;2022-11-27T02:18:37;101743.84;;;7.32;79.18
71643;BME280;59438;45.014;39.006;2022-11-27T02:21:12;101734.28;;;7.28;78.89
71643;BME280;59438;45.014;39.006;2022-11-27T02:23:57;101746.44;;;7.35;79.23
71643;BME280;59438;45.014;39.006;2022-11-27T02:26:52;101727.34;;;7.27;79.26
71643;BME280;59438;45.014;39.006;2022-11-27T02:29:25;101753.41;;;7.36;78.66
71643;BME280;59438;45.014;39.006;2022-11-27T02:31:56;101758.63;;;7.38;78.65
71643;BME280;59438;45.014;39.006;2022-11-27T02:34:27;101758.63;;;7.36;78.25
71643;BME280;59438;45.014;39.006;2022-11-27T02:37:01;101741.28;;;7.26;78.57
71643;BME280;59438;45.014;39.006;2022-11-27T02:39:32;101766.47;;;7.36;78.86
71643;BME280;59438;45.014;39.006;2022-11-27T02:42:05;101764.72;;;7.37;78.56
71643;BME280;59438;45.014;39.006;2022-11-27T02:44:37;101771.69;;;7.38;78.75
71643;BME280;59438;45.014;39.006;2022-11-27T02:47:07;101769.94;;;7.37;78.21
71643;BME280;59438;45.014;39.006;2022-11-27T02:49:36;101765.56;;;7.39;78.68
71643;BME280;59438;45.014;39.006;2022-11-27T02:52:04;101752.63;;;7.22;78.13
71643;BME280;59438;45.014;39.006;2022-11-27T02:54:33;101767.34;;;7.35;78.30
71643;BME280;59438;45.014;39.006;2022-11-27T02:57:01;101778.59;;;7.45;78.66
71643;BME280;59438;45.014;39.006;2022-11-27T02:59:31;101781.25;;;7.42;78.56
71643;BME280;59438;45.014;39.006;2022-11-27T03:02:04;101775.97;;;7.46;78.33
71643;BME280;59438;45.014;39.006;2022-11-27T03:04:42;101789.91;;;7.50;78.72
71643;BME280;59438;45.014;39.006;2022-11-27T03:07:13;101794.28;;;7.50;78.30
71643;BME280;59438;45.014;39.006;2022-11-27T03:09:43;101790.75;;;7.49;78.05
71643;BME280;59438;45.014;39.006;2022-11-27T03:12:11;101789.06;;;7.46;78.03
71643;BME280;59438;45.014;39.006;2022-11-27T03:14:41;101785.59;;;7.43;78.01
71643;BME280;59438;45.014;39.006;2022-11-27T03:17:19;101791.69;;;7.43;78.54
71643;BME280;59438;45.014;39.006;2022-11-27T03:19:50;101793.38;;;7.49;78.59
71643;BME280;59438;45.014;39.006;2022-11-27T03:22:18;101794.28;;;7.46;77.93
71643;BME280;59438;45.014;39.006;2022-11-27T03:24:44;101792.56;;;7.44;77.87
71643;BME280;59438;45.014;39.006;2022-11-27T03:27:12;101796.88;;;7.48;78.06
71643;BME280;59438;45.014;39.006;2022-11-27T03:29:44;101797.78;;;7.42;78.46
71643;BME280;59438;45.014;39.006;2022-11-27T03:32:13;101808.22;;;7.47;77.92
71643;BME280;59438;45.014;39.006;2022-11-27T03:34:40;101814.34;;;7.46;78.40
71643;BME280;59438;45.014;39.006;2022-11-27T03:37:07;101807.38;;;7.40;78.24
71643;BME280;59438;45.014;39.006;2022-11-27T03:39:34;101810.00;;;7.42;78.51
71643;BME280;59438;45.014;39.006;2022-11-27T03:42:08;101815.22;;;7.43;78.55
71643;BME280;59438;45.014;39.006;2022-11-27T03:44:43;101815.22;;;7.43;78.21
71643;BME280;59438;45.014;39.006;2022-11-27T03:47:21;101808.28;;;7.38;78.33
71643;BME280;59438;45.014;39.006;2022-11-27T03:50:01;101824.78;;;7.43;78.64
71643;BME280;59438;45.014;39.006;2022-11-27T03:52:36;101819.56;;;7.43;78.69
71643;BME280;59438;45.014;39.006;2022-11-27T03:55:08;101820.47;;;7.40;78.29
71643;BME280;59438;45.014;39.006;2022-11-27T03:57:41;101816.94;;;7.43;78.48
71643;BME280;59438;45.014;39.006;2022-11-27T04:00:13;101816.97;;;7.40;78.07
71643;BME280;59438;45.014;39.006;2022-11-27T04:02:45;101817.06;;;7.29;78.37
71643;BME280;59438;45.014;39.006;2022-11-27T04:05:12;101824.88;;;7.32;78.06
71643;BME280;59438;45.014;39.006;2022-11-27T04:07:39;101831.84;;;7.32;77.98
71643;BME280;59438;45.014;39.006;2022-11-27T04:10:07;101827.50;;;7.29;78.25
71643;BME280;59438;45.014;39.006;2022-11-27T04:12:34;101830.13;;;7.28;78.23
71643;BME280;59438;45.014;39.006;2022-11-27T04:15:01;101830.97;;;7.28;78.21
71643;BME280;59438;45.014;39.006;2022-11-27T04:17:28;101819.66;;;7.26;77.93
71643;BME280;59438;45.014;39.006;2022-11-27T04:19:56;101830.13;;;7.28;78.13
71643;BME280;59438;45.014;39.006;2022-11-27T04:22:22;101833.59;;;7.28;78.18
71643;BME280;59438;45.014;39.006;2022-11-27T04:24:49;101818.84;;;7.16;78.44
71643;BME280;59438;45.014;39.006;2022-11-27T04:27:15;101841.44;;;7.28;78.79
71643;BME280;59438;45.014;39.006;2022-11-27T04:29:42;101844.06;;;7.31;78.26
71643;BME280;59438;45.014;39.006;2022-11-27T04:32:09;101846.63;;;7.34;78.42
71643;BME280;59438;45.014;39.006;2022-11-27T04:34:35;101844.88;;;7.39;78.54
71643;BME280;59438;45.014;39.006;2022-11-27T04:37:03;101847.50;;;7.36;78.16
71643;BME280;59438;45.014;39.006;2022-11-27T04:39:29;101846.59;;;7.40;78.45
71643;BME280;59438;45.014;39.006;2022-11-27T04:41:56;101854.47;;;7.37;78.29
71643;BME280;59438;45.014;39.006;2022-11-27T04:44:22;101859.69;;;7.34;78.46
71643;BME280;59438;45.014;39.006;2022-11-27T04:46:49;101863.22;;;7.33;78.74
71643;BME280;59438;45.014;39.006;2022-11-27T04:49:15;101857.97;;;7.33;78.45
71643;BME280;59438;45.014;39.006;2022-11-27T04:51:42;101864.94;;;7.36;78.75
71643;BME280;59438;45.014;39.006;2022-11-27T04:54:10;101862.34;;;7.31;78.59
71643;BME280;59438;45.014;39.006;2022-11-27T04:56:36;101871.88;;;7.37;78.32
71643;BME280;59438;45.014;39.006;2022-11-27T04:59:03;101871.00;;;7.36;78.45
71643;BME280;59438;45.014;39.006;2022-11-27T05:01:29;101878.84;;;7.36;78.01
71643;BME280;59438;45.014;39.006;2022-11-27T05:03:56;101879.75;;;7.34;78.23
71643;BME280;59438;45.014;39.006;2022-11-27T05:06:22;101886.69;;;7.36;78.59
71643;BME280;59438;45.014;39.006;2022-11-27T05:08:49;101884.13;;;7.29;79.23
71643;BME280;59438;45.014;39.006;2022-11-27T05:11:17;101881.50;;;7.33;79.13
71643;BME280;59438;45.014;39.006;2022-11-27T05:13:43;101895.44;;;7.31;78.65
71643;BME280;59438;45.014;39.006;2022-11-27T05:16:10;101891.97;;;7.30;78.89
71643;BME280;59438;45.014;39.006;2022-11-27T05:18:36;101895.47;;;7.28;78.80
71643;BME280;59438;45.014;39.006;2022-11-27T05:21:05;101889.38;;;7.25;78.91
71643;BME280;59438;45.014;39.006;2022-11-27T05:23:32;101887.63;;;7.24;78.98
71643;BME280;59438;45.014;39.006;2022-11-27T05:26:00;101890.25;;;7.21;78.55
71643;BME280;59438;45.014;39.006;2022-11-27T05:28:27;101885.91;;;7.16;78.50
71643;BME280;59438;45.014;39.006;2022-11-27T05:30:54;101885.06;;;7.06;78.66
71643;BME280;59438;45.014;39.006;2022-11-27T05:33:20;101900.75;;;7.06;79.41
71643;BME280;59438;45.014;39.006;2022-11-27T05:35:47;101902.50;;;7.04;79.23
71643;BME280;59438;45.014;39.006;2022-11-27T05:38:13;101908.63;;;7.04;79.69
71643;BME280;59438;45.014;39.006;2022-11-27T05:40:39;101916.44;;;7.03;79.45
71643;BME280;59438;45.014;39.006;2022-11-27T05:43:06;101915.59;;;7.02;79.66
71643;BME280;59438;45.014;39.006;2022-11-27T05:45:35;101920.81;;;6.99;79.05
71643;BME280;59438;45.014;39.006;2022-11-27T05:48:02;101915.59;;;6.98;79.35
71643;BME280;59438;45.014;39.006;2022-11-27T05:50:28;101919.09;;;6.98;79.76
71643;BME280;59438;45.014;39.006;2022-11-27T05:52:55;101923.41;;;6.98;79.91
71643;BME280;59438;45.014;39.006;2022-11-27T05:55:21;101919.09;;;6.98;80.05
71643;BME280;59438;45.014;39.006;2022-11-27T05:57:47;101924.28;;;7.01;79.64
71643;BME280;59438;45.014;39.006;2022-11-27T06:00:14;101910.34;;;6.99;80.38
71643;BME280;59438;45.014;39.006;2022-11-27T06:02:42;101926.88;;;7.11;80.15
71643;BME280;59438;45.014;39.006;2022-11-27T06:05:09;101921.63;;;7.12;80.15
71643;BME280;59438;45.014;39.006;2022-11-27T06:07:35;101937.31;;;7.17;80.08
71643;BME280;59438;45.014;39.006;2022-11-27T06:10:02;101932.06;;;7.20;79.71
71643;BME280;59438;45.014;39.006;2022-11-27T06:12:30;101939.91;;;7.23;80.19
71643;BME280;59438;45.014;39.006;2022-11-27T06:14:56;101929.44;;;7.26;79.96
71643;BME280;59438;45.014;39.006;2022-11-27T06:17:23;101932.94;;;7.23;79.83
71643;BME280;59438;45.014;39.006;2022-11-27T06:19:50;101938.16;;;7.25;79.98
71643;BME280;59438;45.014;39.006;2022-11-27T06:22:17;101943.38;;;7.23;79.42
71643;BME280;59438;45.014;39.006;2022-11-27T06:24:43;101940.78;;;7.22;79.42
71643;BME280;59438;45.014;39.006;2022-11-27T06:27:09;101937.28;;;7.24;79.69
71643;BME280;59438;45.014;39.006;2022-11-27T06:29:36;101929.47;;;7.23;80.05
71643;BME280;59438;45.014;39.006;2022-11-27T06:32:03;101944.22;;;7.32;79.73
71643;BME280;59438;45.014;39.006;2022-11-27T06:34:30;101941.63;;;7.32;79.56
71643;BME280;59438;45.014;39.006;2022-11-27T06:36:57;101948.56;;;7.37;79.73
71643;BME280;59438;45.014;39.006;2022-11-27T06:39:24;101954.66;;;7.39;80.09
71643;BME280;59438;45.014;39.006;2022-11-27T06:41:50;101960.75;;;7.41;79.57
71643;BME280;59438;45.014;39.006;2022-11-27T06:44:17;101952.03;;;7.42;79.97
71643;BME280;59438;45.014;39.006;2022-11-27T06:46:43;101952.88;;;7.46;79.52
71643;BME280;59438;45.014;39.006;2022-11-27T06:49:11;101948.53;;;7.45;79.39
71643;BME280;59438;45.014;39.006;2022-11-27T06:51:37;101955.50;;;7.47;79.47
71643;BME280;59438;45.014;39.006;2022-11-27T06:54:05;101955.50;;;7.47;79.33
71643;BME280;59438;45.014;39.006;2022-11-27T06:56:32;101965.06;;;7.50;79.27
71643;BME280;59438;45.014;39.006;2022-11-27T06:59:00;101960.72;;;7.51;79.11
71643;BME280;59438;45.014;39.006;2022-11-27T07:01:28;101949.38;;;7.47;79.57
71643;BME280;59438;45.014;39.006;2022-11-27T07:03:55;101976.41;;;7.54;79.47
71643;BME280;59438;45.014;39.006;2022-11-27T07:06:23;101946.81;;;7.36;79.65
71643;BME280;59438;45.014;39.006;2022-11-27T07:08:50;101979.88;;;7.53;79.70
71643;BME280;59438;45.014;39.006;2022-11-27T07:11:20;101966.81;;;7.50;79.81
71643;BME280;59438;45.014;39.006;2022-11-27T07:13:48;101960.72;;;7.44;79.56
71643;BME280;59438;45.014;39.006;2022-11-27T07:16:15;101975.50;;;7.56;79.30
71643;BME280;59438;45.014;39.006;2022-11-27T07:18:43;101983.31;;;7.61;79.74
71643;BME280;59438;45.014;39.006;2022-11-27T07:21:10;101970.28;;;7.56;79.54
71643;BME280;59438;45.014;39.006;2022-11-27T07:23:37;101972.00;;;7.57;79.50
71643;BME280;59438;45.014;39.006;2022-11-27T07:26:04;101975.47;;;7.59;79.08
71643;BME280;59438;45.014;39.006;2022-11-27T07:28:33;101978.97;;;7.58;79.62
71643;BME280;59438;45.014;39.006;2022-11-27T07:31:00;101985.91;;;7.70;79.26
71643;BME280;59438;45.014;39.006;2022-11-27T07:33:26;101983.31;;;7.70;79.32
71643;BME280;59438;45.014;39.006;2022-11-27T07:35:57;101987.66;;;7.66;79.50
71643;BME280;59438;45.014;39.006;2022-11-27T07:38:24;101999.00;;;7.64;78.91
71643;BME280;59438;45.014;39.006;2022-11-27T07:40:50;101977.25;;;7.51;79.39
71643;BME280;59438;45.014;39.006;2022-11-27T07:43:16;101999.88;;;7.66;79.04
71643;BME280;59438;45.014;39.006;2022-11-27T07:45:44;101992.00;;;7.67;79.12
71643;BME280;59438;45.014;39.006;2022-11-27T07:48:11;101992.00;;;7.67;78.89
71643;BME280;59438;45.014;39.006;2022-11-27T07:50:38;102000.72;;;7.71;79.31
71643;BME280;59438;45.014;39.006;2022-11-27T07:53:04;101998.09;;;7.73;79.00
71643;BME280;59438;45.014;39.006;2022-11-27T07:55:31;102000.72;;;7.71;78.97
71643;BME280;59438;45.014;39.006;2022-11-27T07:57:57;102008.56;;;7.71;78.99
71643;BME280;59438;45.014;39.006;2022-11-27T08:00:24;102002.47;;;7.67;78.70
71643;BME280;59438;45.014;39.006;2022-11-27T08:02:51;101992.00;;;7.69;79.37
71643;BME280;59438;45.014;39.006;2022-11-27T08:05:18;102001.59;;;7.76;78.82
71643;BME280;59438;45.014;39.006;2022-11-27T08:07:44;102003.34;;;7.74;78.87
71643;BME280;59438;45.014;39.006;2022-11-27T08:10:11;101997.22;;;7.74;79.10
71643;BME280;59438;45.014;39.006;2022-11-27T08:12:37;102006.81;;;7.72;79.17
71643;BME280;59438;45.014;39.006;2022-11-27T08:15:05;101996.38;;;7.70;78.66
71643;BME280;59438;45.014;39.006;2022-11-27T08:17:31;101997.25;;;7.71;78.60
71643;BME280;59438;45.014;39.006;2022-11-27T08:19:59;101992.00;;;7.72;78.82
71643;BME280;59438;45.014;39.006;2022-11-27T08:22:26;102003.34;;;7.73;79.06
71643;BME280;59438;45.014;39.006;2022-11-27T08:24:52;101997.25;;;7.72;78.77
71643;BME280;59438;45.014;39.006;2022-11-27T08:27:19;101995.47;;;7.73;78.69
71643;BME280;59438;45.014;39.006;2022-11-27T08:29:46;101992.91;;;7.68;78.53
71643;BME280;59438;45.014;39.006;2022-11-27T08:32:12;101973.72;;;7.61;78.85
71643;BME280;59438;45.014;39.006;2022-11-27T08:34:39;101983.31;;;7.70;78.72
71643;BME280;59438;45.014;39.006;2022-11-27T08:37:07;101989.38;;;7.77;78.53
71643;BME280;59438;45.014;39.006;2022-11-27T08:39:34;101986.75;;;7.77;78.93
71643;BME280;59438;45.014;39.006;2022-11-27T08:42:00;101985.03;;;7.73;78.42
71643;BME280;59438;45.014;39.006;2022-11-27T08:44:26;101998.06;;;7.80;78.58
71643;BME280;59438;45.014;39.006;2022-11-27T08:46:53;101985.00;;;7.80;78.78
71643;BME280;59438;45.014;39.006;2022-11-27T08:49:19;101991.94;;;7.84;78.54
71643;BME280;59438;45.014;39.006;2022-11-27T08:51:46;101978.88;;;7.80;78.68
71643;BME280;59438;45.014;39.006;2022-11-27T08:54:13;101980.59;;;7.85;78.74
71643;BME280;59438;45.014;39.006;2022-11-27T08:56:40;101985.78;;;7.88;78.75
71643;BME280;59438;45.014;39.006;2022-11-27T08:59:06;101984.94;;;7.90;78.53
71643;BME280;59438;45.014;39.006;2022-11-27T09:01:33;101976.22;;;7.87;77.96
71643;BME280;59438;45.014;39.006;2022-11-27T09:03:59;101977.94;;;7.90;78.44
71643;BME280;59438;45.014;39.006;2022-11-27T09:06:27;101981.44;;;7.89;78.24
71643;BME280;59438;45.014;39.006;2022-11-27T09:08:55;101985.78;;;7.90;78.08
71643;BME280;59438;45.014;39.006;2022-11-27T09:11:23;101984.94;;;7.91;78.27
71643;BME280;59438;45.014;39.006;2022-11-27T09:13:50;101983.16;;;7.93;77.85
71643;BME280;59438;45.014;39.006;2022-11-27T09:16:18;101981.41;;;7.95;78.41
71643;BME280;59438;45.014;39.006;2022-11-27T09:18:45;101981.41;;;7.95;78.14
71643;BME280;59438;45.014;39.006;2022-11-27T09:21:13;101985.75;;;7.95;78.44
71643;BME280;59438;45.014;39.006;2022-11-27T09:23:40;101988.34;;;8.04;78.48
71643;BME280;59438;45.014;39.006;2022-11-27T09:26:08;101992.69;;;8.05;78.08
71643;BME280;59438;45.014;39.006;2022-11-27T09:28:37;101996.19;;;8.05;78.07
71643;BME280;59438;45.014;39.006;2022-11-27T09:31:05;102004.03;;;8.05;78.20
71643;BME280;59438;45.014;39.006;2022-11-27T09:33:33;101980.53;;;7.95;77.99
71643;BME280;59438;45.014;39.006;2022-11-27T09:36:03;101990.09;;;8.03;78.53
71643;BME280;59438;45.014;39.006;2022-11-27T09:38:30;101997.91;;;8.10;78.18
71643;BME280;59438;45.014;39.006;2022-11-27T09:40:59;101993.50;;;8.15;78.68
71643;BME280;59438;45.014;39.006;2022-11-27T09:43:33;101993.50;;;8.16;78.51
71643;BME280;59438;45.014;39.006;2022-11-27T09:46:11;101989.97;;;8.19;78.46
71643;BME280;59438;45.014;39.006;2022-11-27T09:48:41;101989.13;;;8.15;78.08
71643;BME280;59438;45.014;39.006;2022-11-27T09:51:12;101987.38;;;8.20;78.01
71643;BME280;59438;45.014;39.006;2022-11-27T09:53:46;101952.69;;;7.89;78.13
71643;BME280;59438;45.014;39.006;2022-11-27T09:56:16;101956.09;;;7.99;78.12
71643;BME280;59438;45.014;39.006;2022-11-27T09:58:46;101983.06;;;8.12;78.30
71643;BME280;59438;45.014;39.006;2022-11-27T10:01:16;101992.59;;;8.22;78.52
71643;BME280;59438;45.014;39.006;2022-11-27T10:03:45;101972.59;;;8.10;78.12
71643;BME280;59438;45.014;39.006;2022-11-27T10:06:20;101996.03;;;8.28;78.41
71643;BME280;59438;45.014;39.006;2022-11-27T10:08:55;101989.06;;;8.26;78.29
71643;BME280;59438;45.014;39.006;2022-11-27T10:11:29;101996.88;;;8.31;77.90
71643;BME280;59438;45.014;39.006;2022-11-27T10:14:06;102006.47;;;8.32;78.11
71643;BME280;59438;45.014;39.006;2022-11-27T10:16:46;101975.19;;;8.16;78.06
71643;BME280;59438;45.014;39.006;2022-11-27T10:19:24;101983.88;;;8.17;78.30
71643;BME280;59438;45.014;39.006;2022-11-27T10:21:57;102009.97;;;8.29;77.62
71643;BME280;59438;45.014;39.006;2022-11-27T10:24:31;102001.28;;;8.27;77.87
71643;BME280;59438;45.014;39.006;2022-11-27T10:26:58;102009.13;;;8.25;77.97
71643;BME280;59438;45.014;39.006;2022-11-27T10:29:33;102011.78;;;8.24;78.09
71643;BME280;59438;45.014;39.006;2022-11-27T10:32:04;102000.41;;;8.23;78.22
71643;BME280;59438;45.014;39.006;2022-11-27T10:34:38;101978.72;;;8.04;78.25
71643;BME280;59438;45.014;39.006;2022-11-27T10:37:10;101981.31;;;8.12;78.23
71643;BME280;59438;45.014;39.006;2022-11-27T10:39:43;102000.44;;;8.17;78.28
71643;BME280;59438;45.014;39.006;2022-11-27T10:42:16;102007.41;;;8.24;78.57
71643;BME280;59438;45.014;39.006;2022-11-27T10:44:47;102011.75;;;8.25;78.14
71643;BME280;59438;45.014;39.006;2022-11-27T10:47:17;102006.50;;;8.27;78.38
71643;BME280;59438;45.014;39.006;2022-11-27T10:49:46;102013.47;;;8.30;78.10
71643;BME280;59438;45.014;39.006;2022-11-27T10:52:14;102010.84;;;8.30;78.10
71643;BME280;59438;45.014;39.006;2022-11-27T10:54:42;102003.88;;;8.27;78.01
71643;BME280;59438;45.014;39.006;2022-11-27T10:57:27;102018.69;;;8.31;78.22
71643;BME280;59438;45.014;39.006;2022-11-27T11:00:03;102017.88;;;8.24;77.92
71643;BME280;59438;45.014;39.006;2022-11-27T11:02:33;102004.88;;;8.12;78.10
71643;BME280;59438;45.014;39.006;2022-11-27T11:05:10;102018.78;;;8.22;77.70
71643;BME280;59438;45.014;39.006;2022-11-27T11:07:36;102033.56;;;8.24;77.83
71643;BME280;59438;45.014;39.006;2022-11-27T11:10:15;102034.44;;;8.26;77.83
71643;BME280;59438;45.014;39.006;2022-11-27T11:12:49;102024.84;;;8.25;77.90
71643;BME280;59438;45.014;39.006;2022-11-27T11:15:15;102026.59;;;8.28;77.68
71643;BME280;59438;45.014;39.006;2022-11-27T11:17:43;102032.69;;;8.28;77.94
71643;BME280;59438;45.014;39.006;2022-11-27T11:20:19;102034.41;;;8.31;77.98
71643;BME280;59438;45.014;39.006;2022-11-27T11:22:47;102036.16;;;8.32;77.84
71643;BME280;59438;45.014;39.006;2022-11-27T11:25:16;102035.25;;;8.32;77.73
71643;BME280;59438;45.014;39.006;2022-11-27T11:27:44;102042.25;;;8.33;77.67
71643;BME280;59438;45.014;39.006;2022-11-27T11:30:20;102030.94;;;8.29;77.71
71643;BME280;59438;45.014;39.006;2022-11-27T11:32:49;102041.41;;;8.32;77.75
71643;BME280;59438;45.014;39.006;2022-11-27T11:35:26;102007.44;;;8.15;77.82
71643;BME280;59438;45.014;39.006;2022-11-27T11:37:54;102046.59;;;8.38;77.33
71643;BME280;59438;45.014;39.006;2022-11-27T11:40:23;102054.44;;;8.37;77.57
71643;BME280;59438;45.014;39.006;2022-11-27T11:42:51;102034.44;;;8.28;77.56
71643;BME280;59438;45.014;39.006;2022-11-27T11:45:19;102057.06;;;8.35;77.52
71643;BME280;59438;45.014;39.006;2022-11-27T11:47:47;102063.16;;;8.36;77.69
71643;BME280;59438;45.014;39.006;2022-11-27T11:50:22;102063.16;;;8.36;77.51
71643;BME280;59438;45.014;39.006;2022-11-27T11:52:57;102066.69;;;8.35;77.90
71643;BME280;59438;45.014;39.006;2022-11-27T11:55:29;102063.19;;;8.34;77.71
71643;BME280;59438;45.014;39.006;2022-11-27T11:58:20;102057.97;;;8.33;78.33
71643;BME280;59438;45.014;39.006;2022-11-27T12:00:57;102052.75;;;8.28;77.61
71643;BME280;59438;45.014;39.006;2022-11-27T12:03:34;102073.63;;;8.37;77.86
71643;BME280;59438;45.014;39.006;2022-11-27T12:06:34;102087.59;;;8.38;78.05
71643;BME280;59438;45.014;39.006;2022-11-27T12:09:12;102067.56;;;8.31;77.70
71643;BME280;59438;45.014;39.006;2022-11-27T12:11:45;102085.91;;;8.32;77.77
71643;BME280;59438;45.014;39.006;2022-11-27T12:14:20;102094.63;;;8.30;77.99
71643;BME280;59438;45.014;39.006;2022-11-27T12:16:56;102089.38;;;8.31;78.38
71643;BME280;59438;45.014;39.006;2022-11-27T12:20:02;102096.34;;;8.35;78.88
71643;BME280;59438;45.014;39.006;2022-11-27T12:22:51;102092.03;;;8.28;78.23
71643;BME280;59438;45.014;39.006;2022-11-27T12:25:27;102101.59;;;8.31;78.33
71643;BME280;59438;45.014;39.006;2022-11-27T12:28:07;102101.59;;;8.29;78.84
71643;BME280;59438;45.014;39.006;2022-11-27T12:30:46;102105.97;;;8.25;77.58
71643;BME280;59438;45.014;39.006;2022-11-27T12:33:28;102109.50;;;8.24;78.68
71643;BME280;59438;45.014;39.006;2022-11-27T12:36:07;102112.97;;;8.23;78.48
71643;BME280;59438;45.014;39.006;2022-11-27T12:39:00;102116.44;;;8.25;78.80
71643;BME280;59438;45.014;39.006;2022-11-27T12:41:51;102111.25;;;8.21;78.89
71643;BME280;59438;45.014;39.006;2022-11-27T12:44:28;102117.38;;;8.20;78.76
71643;BME280;59438;45.014;39.006;2022-11-27T12:46:59;102113.88;;;8.13;78.44
71643;BME280;59438;45.014;39.006;2022-11-27T12:49:33;102120.00;;;8.15;78.83
71643;BME280;59438;45.014;39.006;2022-11-27T12:52:09;102122.56;;;8.21;78.93
71643;BME280;59438;45.014;39.006;2022-11-27T12:54:47;102119.09;;;8.22;79.26
71643;BME280;59438;45.014;39.006;2022-11-27T12:57:17;102126.94;;;8.21;78.81
71643;BME280;59438;45.014;39.006;2022-11-27T12:59:49;102087.78;;;8.02;78.87
71643;BME280;59438;45.014;39.006;2022-11-27T13:02:26;102126.06;;;8.25;79.36